createdAt,value
2018-09-02T00:01:54.320Z,2.97
2018-09-02T00:04:21.610Z,2.63
2018-09-02T00:06:48.815Z,2.67
2018-09-02T00:09:16.119Z,2.80
2018-09-02T00:11:43.426Z,2.50
2018-09-02T00:14:10.736Z,2.00
2018-09-02T00:16:37.994Z,1.90
2018-09-02T00:19:05.267Z,2.30
2018-09-02T00:21:32.576Z,2.30
2018-09-02T00:23:59.902Z,3.10
2018-09-02T00:26:27.216Z,1.97
2018-09-02T00:28:54.468Z,2.40
2018-09-02T00:31:21.752Z,2.93
2018-09-02T00:33:49.048Z,2.13
2018-09-02T00:36:16.338Z,1.97
2018-09-02T00:38:43.678Z,2.90
2018-09-02T00:41:11.017Z,3.57
2018-09-02T00:43:38.259Z,2.00
2018-09-02T00:46:05.723Z,2.20
2018-09-02T00:48:32.968Z,3.30
2018-09-02T00:51:00.270Z,1.60
2018-09-02T00:53:27.677Z,2.50
2018-09-02T00:55:55.004Z,3.30
2018-09-02T00:58:22.289Z,1.97
2018-09-02T01:00:49.533Z,2.13
2018-09-02T01:03:18.583Z,2.07
2018-09-02T01:05:45.861Z,2.60
2018-09-02T01:08:13.069Z,2.07
2018-09-02T01:10:40.364Z,2.27
2018-09-02T01:13:07.685Z,2.70
2018-09-02T01:15:34.912Z,2.10
2018-09-02T01:18:02.262Z,2.07
2018-09-02T01:20:29.539Z,2.30
2018-09-02T01:22:56.942Z,2.80
2018-09-02T01:25:24.207Z,2.20
2018-09-02T01:27:51.558Z,1.97
2018-09-02T01:30:18.811Z,1.70
2018-09-02T01:32:46.146Z,2.53
2018-09-02T01:35:18.894Z,2.43
2018-09-02T01:37:46.209Z,2.07
2018-09-02T01:40:13.483Z,2.13
2018-09-02T01:42:40.885Z,2.10
2018-09-02T01:45:08.187Z,2.33
2018-09-02T01:47:35.445Z,2.53
2018-09-02T01:50:02.814Z,2.10
2018-09-02T01:52:30.034Z,2.50
2018-09-02T01:54:57.261Z,2.43
2018-09-02T01:57:24.579Z,1.90
2018-09-02T01:59:51.871Z,2.17
2018-09-02T02:02:19.108Z,2.60
2018-09-02T02:04:46.461Z,2.00
2018-09-02T02:07:13.684Z,2.80
2018-09-02T02:09:41.200Z,3.00
2018-09-02T02:12:08.481Z,1.90
2018-09-02T02:14:35.844Z,2.20
2018-09-02T02:17:03.080Z,2.10
2018-09-02T02:19:31.303Z,2.70
2018-09-02T02:21:58.576Z,2.53
2018-09-02T02:24:25.880Z,2.30
2018-09-02T02:26:53.243Z,2.73
2018-09-02T02:29:20.501Z,2.33
2018-09-02T02:31:47.730Z,1.87
2018-09-02T02:34:15.153Z,2.80
2018-09-02T02:36:42.451Z,2.17
2018-09-02T02:39:10.881Z,2.00
2018-09-02T02:41:38.384Z,2.50
2018-09-02T02:44:05.864Z,2.20
2018-09-02T02:46:33.361Z,2.33
2018-09-02T02:49:00.590Z,2.30
2018-09-02T02:51:27.900Z,1.80
2018-09-02T02:53:55.264Z,2.27
2018-09-02T02:56:22.570Z,2.70
2018-09-02T02:58:49.818Z,2.13
2018-09-02T03:01:17.189Z,2.37
2018-09-02T03:03:44.514Z,2.77
2018-09-02T03:06:11.865Z,2.37
2018-09-02T03:08:39.136Z,2.10
2018-09-02T03:11:06.422Z,2.80
2018-09-02T03:13:33.742Z,2.20
2018-09-02T03:16:01.088Z,1.87
2018-09-02T03:18:28.342Z,2.87
2018-09-02T03:20:55.609Z,2.17
2018-09-02T03:23:22.954Z,2.50
2018-09-02T03:25:50.313Z,2.27
2018-09-02T03:28:17.694Z,2.20
2018-09-02T03:30:45.082Z,1.70
2018-09-02T03:33:12.363Z,1.93
2018-09-02T03:35:39.640Z,2.17
2018-09-02T03:38:06.947Z,2.17
2018-09-02T03:40:34.209Z,2.37
2018-09-02T03:43:01.553Z,2.23
2018-09-02T03:45:28.812Z,2.20
2018-09-02T03:47:56.095Z,2.77
2018-09-02T03:50:23.387Z,2.77
2018-09-02T03:52:50.651Z,2.50
2018-09-02T03:55:17.995Z,2.33
2018-09-02T03:57:45.272Z,2.30
2018-09-02T04:00:12.571Z,1.90
2018-09-02T04:02:39.891Z,1.83
2018-09-02T04:05:07.226Z,2.07
2018-09-02T04:07:34.417Z,2.20
2018-09-02T04:10:01.732Z,1.90
2018-09-02T04:12:28.976Z,1.83
2018-09-02T04:14:56.409Z,1.80
2018-09-02T04:17:23.687Z,2.47
2018-09-02T04:19:50.970Z,3.10
2018-09-02T04:22:18.245Z,2.50
2018-09-02T04:24:45.563Z,2.10
2018-09-02T04:27:12.869Z,2.07
2018-09-02T04:29:40.161Z,2.83
2018-09-02T04:32:07.439Z,1.90
2018-09-02T04:34:34.685Z,2.00
2018-09-02T04:37:02.058Z,1.97
2018-09-02T04:39:29.367Z,2.40
2018-09-02T04:41:56.666Z,2.40
2018-09-02T04:44:23.959Z,2.17
2018-09-02T04:46:51.312Z,3.07
2018-09-02T04:49:18.611Z,2.20
2018-09-02T04:51:46.042Z,1.80
2018-09-02T04:54:13.283Z,2.73
2018-09-02T04:56:40.520Z,1.93
2018-09-02T04:59:07.778Z,2.23
2018-09-02T05:01:35.088Z,2.63
2018-09-02T05:04:02.391Z,2.27
2018-09-02T05:06:29.792Z,2.60
2018-09-02T05:08:57.000Z,2.00
2018-09-02T05:11:35.883Z,2.10
2018-09-02T05:14:08.173Z,2.00
2018-09-02T05:16:35.454Z,14.70
2018-09-02T05:19:02.729Z,2.90
2018-09-02T05:21:29.993Z,2.90
2018-09-02T05:23:57.319Z,2.33
2018-09-02T05:26:24.698Z,1.60
2018-09-02T05:28:52.107Z,1.87
2018-09-02T05:31:19.392Z,2.37
2018-09-02T05:33:46.676Z,2.17
2018-09-02T05:36:14.056Z,2.77
2018-09-02T05:38:41.348Z,2.77
2018-09-02T05:45:17.810Z,3.37
2018-09-02T05:47:45.096Z,3.13
2018-09-02T05:50:12.392Z,3.10
2018-09-02T05:52:39.686Z,2.30
2018-09-02T05:55:07.228Z,2.30
2018-09-02T05:57:34.732Z,2.10
2018-09-02T06:00:01.999Z,2.00
2018-09-02T06:02:29.280Z,2.37
2018-09-02T06:04:56.529Z,2.60
2018-09-02T06:07:23.866Z,3.00
2018-09-02T06:09:51.172Z,1.90
2018-09-02T06:15:11.286Z,2.77
2018-09-02T06:17:38.510Z,2.70
2018-09-02T06:20:05.776Z,2.40
2018-09-02T06:22:33.154Z,4.10
2018-09-02T06:25:00.477Z,2.27
2018-09-02T06:27:27.855Z,2.87
2018-09-02T06:29:55.185Z,2.43
2018-09-02T06:32:22.435Z,2.47
2018-09-02T06:34:49.786Z,2.70
2018-09-02T06:37:17.100Z,2.60
2018-09-02T06:39:44.302Z,2.60
2018-09-02T06:42:11.615Z,2.77
2018-09-02T06:44:38.886Z,3.50
2018-09-02T06:47:06.214Z,2.80
2018-09-02T06:49:33.532Z,3.20
2018-09-02T06:52:00.833Z,2.30
2018-09-02T06:54:28.204Z,2.40
2018-09-02T06:56:55.461Z,3.33
2018-09-02T06:59:22.710Z,3.37
2018-09-02T07:01:50.092Z,3.27
2018-09-02T07:04:17.471Z,2.73
2018-09-02T07:06:44.849Z,2.87
2018-09-02T07:09:12.089Z,3.03
2018-09-02T07:11:39.367Z,3.10
2018-09-02T07:14:06.634Z,3.20
2018-09-02T07:16:33.916Z,3.60
2018-09-02T07:19:01.225Z,3.23
2018-09-02T07:21:28.487Z,3.60
2018-09-02T07:23:55.824Z,2.90
2018-09-02T07:26:23.107Z,3.20
2018-09-02T07:28:50.407Z,2.63
2018-09-02T07:31:18.032Z,2.83
2018-09-02T07:33:45.303Z,3.03
2018-09-02T07:36:12.664Z,3.67
2018-09-02T07:38:40.002Z,3.07
2018-09-02T07:41:07.258Z,2.80
2018-09-02T07:43:34.578Z,3.33
2018-09-02T07:46:01.842Z,3.70
2018-09-02T07:48:29.170Z,3.13
2018-09-02T07:50:56.491Z,4.30
2018-09-02T07:53:23.755Z,4.00
2018-09-02T07:55:51.073Z,3.40
2018-09-02T07:58:18.368Z,4.17
2018-09-02T08:00:45.633Z,3.37
2018-09-02T08:03:12.917Z,3.40
2018-09-02T08:05:40.232Z,3.10
2018-09-02T08:08:07.499Z,4.60
2018-09-02T08:10:34.769Z,3.50
2018-09-02T08:13:02.085Z,3.80
2018-09-02T08:15:29.422Z,4.17
2018-09-02T08:17:56.712Z,3.53
2018-09-02T08:20:24.006Z,4.83
2018-09-02T08:22:51.406Z,3.37
2018-09-02T08:25:18.676Z,4.00
2018-09-02T08:27:47.395Z,4.10
2018-09-02T08:30:14.649Z,3.70
2018-09-02T08:32:41.900Z,4.17
2018-09-02T08:35:09.212Z,3.60
2018-09-02T08:37:36.447Z,3.90
2018-09-02T08:40:03.839Z,3.27
2018-09-02T08:42:31.128Z,3.63
2018-09-02T08:44:59.119Z,4.03
2018-09-02T08:47:26.355Z,4.33
2018-09-02T08:49:53.692Z,3.53
2018-09-02T08:52:20.969Z,3.63
2018-09-02T08:54:48.257Z,3.83
2018-09-02T08:57:15.535Z,3.67
2018-09-02T08:59:42.827Z,3.83
2018-09-02T09:02:10.091Z,4.10
2018-09-02T09:04:37.313Z,4.27
2018-09-02T09:07:04.794Z,4.63
2018-09-02T09:09:31.989Z,4.13
2018-09-02T09:11:59.303Z,4.33
2018-09-02T09:14:26.546Z,3.97
2018-09-02T09:16:53.936Z,4.43
2018-09-02T09:19:21.166Z,4.53
2018-09-02T09:21:48.489Z,4.40
2018-09-02T09:24:15.799Z,4.50
2018-09-02T09:26:43.122Z,4.00
2018-09-02T09:29:10.376Z,4.10
2018-09-02T09:31:37.605Z,4.57
2018-09-02T09:34:04.890Z,4.67
2018-09-02T09:36:32.184Z,5.07
2018-09-02T09:38:59.542Z,4.13
2018-09-02T09:41:26.934Z,4.13
2018-09-02T09:43:54.184Z,3.97
2018-09-02T09:46:21.499Z,4.40
2018-09-02T09:48:48.861Z,3.93
2018-09-02T09:51:16.108Z,3.97
2018-09-02T09:53:43.401Z,4.43
2018-09-02T09:56:10.683Z,5.33
2018-09-02T09:58:37.992Z,5.10
2018-09-02T10:01:05.232Z,5.47
2018-09-02T10:03:32.585Z,5.00
2018-09-02T10:06:01.623Z,5.90
2018-09-02T10:08:28.954Z,4.90
2018-09-02T10:10:56.341Z,5.50
2018-09-02T10:13:23.595Z,5.27
2018-09-02T10:15:50.895Z,7.17
2018-09-02T10:18:18.266Z,6.53
2018-09-02T10:20:45.416Z,5.83
2018-09-02T10:23:12.691Z,6.63
2018-09-02T10:25:39.983Z,6.70
2018-09-02T10:28:07.335Z,5.90
2018-09-02T10:30:34.673Z,5.60
2018-09-02T10:33:02.035Z,5.90
2018-09-02T10:35:29.360Z,6.03
2018-09-02T10:37:56.721Z,6.50
2018-09-02T10:40:24.001Z,4.67
2018-09-02T10:42:51.344Z,6.33
2018-09-02T10:45:18.674Z,5.40
2018-09-02T10:50:38.811Z,5.87
2018-09-02T10:53:06.019Z,6.10
2018-09-02T10:55:33.289Z,6.30
2018-09-02T10:58:00.581Z,5.50
2018-09-02T11:00:27.862Z,4.90
2018-09-02T11:02:55.185Z,6.43
2018-09-02T11:05:22.484Z,5.80
2018-09-02T11:07:49.813Z,6.10
2018-09-02T11:10:17.142Z,5.87
2018-09-02T11:12:44.423Z,6.83
2018-09-02T11:15:11.768Z,6.10
2018-09-02T11:17:39.075Z,4.93
2018-09-02T11:20:06.423Z,5.77
2018-09-02T11:22:33.689Z,4.90
2018-09-02T11:25:00.953Z,5.60
2018-09-02T11:27:28.280Z,5.00
2018-09-02T11:29:55.579Z,3.97
2018-09-02T11:32:22.846Z,4.77
2018-09-02T11:34:50.152Z,4.07
2018-09-02T11:37:17.448Z,3.60
2018-09-02T11:39:44.698Z,4.13
2018-09-02T11:42:11.953Z,4.47
2018-09-02T11:44:39.157Z,3.90
2018-09-02T11:47:06.458Z,3.50
2018-09-02T11:49:33.697Z,3.73
2018-09-02T11:52:01.019Z,3.57
2018-09-02T11:54:28.297Z,3.33
2018-09-02T11:56:55.593Z,3.70
2018-09-02T11:59:22.879Z,3.63
2018-09-02T12:01:50.213Z,3.43
2018-09-02T12:04:17.584Z,2.77
2018-09-02T12:06:44.831Z,3.10
2018-09-02T12:09:12.078Z,3.03
2018-09-02T12:11:39.367Z,3.03
2018-09-02T12:14:06.516Z,2.53
2018-09-02T12:16:33.850Z,2.90
2018-09-02T12:19:01.141Z,3.00
2018-09-02T12:21:28.438Z,3.30
2018-09-02T12:23:55.897Z,2.80
2018-09-02T12:26:23.164Z,2.70
2018-09-02T12:28:50.472Z,4.40
2018-09-02T12:31:17.745Z,2.67
2018-09-02T12:33:45.084Z,2.70
2018-09-02T12:36:12.336Z,2.70
2018-09-02T12:38:39.560Z,3.10
2018-09-02T12:41:06.820Z,2.97
2018-09-02T12:43:34.096Z,3.17
2018-09-02T12:46:01.508Z,3.20
2018-09-02T12:48:28.803Z,3.67
2018-09-02T12:50:56.628Z,3.00
2018-09-02T12:53:24.021Z,3.80
2018-09-02T12:55:54.495Z,3.60
2018-09-02T12:58:21.799Z,2.90
2018-09-02T13:00:49.093Z,3.93
2018-09-02T13:03:16.314Z,3.40
2018-09-02T13:05:43.603Z,4.10
2018-09-02T13:08:10.917Z,4.40
2018-09-02T13:10:38.234Z,4.87
2018-09-02T13:13:05.767Z,4.73
2018-09-02T13:15:33.066Z,4.90
2018-09-02T13:18:00.346Z,5.47
2018-09-02T13:20:27.606Z,4.90
2018-09-02T13:22:55.000Z,5.47
2018-09-02T13:25:22.311Z,5.17
2018-09-02T13:27:49.563Z,7.10
2018-09-02T13:30:16.809Z,5.97
2018-09-02T13:32:43.985Z,5.40
2018-09-02T13:35:11.282Z,6.17
2018-09-02T13:37:38.586Z,6.53
2018-09-02T13:40:06.384Z,6.03
2018-09-02T13:42:33.729Z,6.50
2018-09-02T13:45:01.037Z,6.23
2018-09-02T13:47:28.342Z,6.70
2018-09-02T13:49:55.921Z,6.37
2018-09-02T13:52:27.158Z,5.67
2018-09-02T13:54:56.335Z,5.90
2018-09-02T13:57:23.628Z,6.70
2018-09-02T13:59:50.872Z,4.90
2018-09-02T14:02:18.097Z,7.13
2018-09-02T14:04:45.334Z,5.87
2018-09-02T14:07:12.660Z,6.17
2018-09-02T14:09:39.932Z,5.80
2018-09-02T14:12:07.257Z,5.77
2018-09-02T14:14:34.470Z,7.00
2018-09-02T14:17:01.750Z,6.80
2018-09-02T14:19:29.071Z,6.80
2018-09-02T14:21:56.317Z,7.23
2018-09-02T14:24:23.637Z,6.67
2018-09-02T14:26:50.904Z,6.00
2018-09-02T14:29:18.237Z,6.80
2018-09-02T14:31:45.527Z,7.40
2018-09-02T14:34:12.804Z,6.60
2018-09-02T14:36:40.063Z,6.27
2018-09-02T14:39:09.638Z,7.87
2018-09-02T14:41:36.929Z,8.27
2018-09-02T14:44:04.239Z,7.40
2018-09-02T14:46:31.418Z,7.00
2018-09-02T14:48:58.637Z,8.03
2018-09-02T14:51:25.928Z,8.10
2018-09-02T14:53:53.131Z,7.13
2018-09-02T14:56:20.497Z,7.63
2018-09-02T14:58:47.759Z,7.80
2018-09-02T15:01:15.027Z,7.60
2018-09-02T15:03:42.297Z,7.37
2018-09-02T15:06:09.746Z,7.70
2018-09-02T15:08:37.148Z,6.93
2018-09-02T15:11:04.425Z,7.70
2018-09-02T15:13:32.150Z,8.10
2018-09-02T15:15:59.434Z,7.27
2018-09-02T15:18:26.745Z,6.53
2018-09-02T15:20:53.924Z,7.70
2018-09-02T15:23:21.252Z,8.17
2018-09-02T15:25:48.513Z,7.43
2018-09-02T15:28:15.821Z,7.43
2018-09-02T15:30:43.037Z,7.90
2018-09-02T15:33:10.335Z,7.40
2018-09-02T15:35:37.645Z,56.63
2018-09-02T15:38:04.923Z,17.00
2018-09-02T15:40:32.240Z,8.10
2018-09-02T15:42:59.590Z,8.00
2018-09-02T15:45:26.798Z,8.73
2018-09-02T15:47:54.135Z,7.73
2018-09-02T15:50:21.424Z,7.23
2018-09-02T15:52:48.815Z,6.53
2018-09-02T15:55:16.111Z,7.90
2018-09-02T15:57:43.437Z,7.77
2018-09-02T16:00:10.698Z,7.53
2018-09-02T16:02:38.026Z,7.67
2018-09-02T16:05:05.335Z,7.60
2018-09-02T16:07:32.665Z,7.57
2018-09-02T16:10:01.437Z,7.80
2018-09-02T16:12:29.069Z,6.93
2018-09-02T16:14:56.609Z,8.60
2018-09-02T16:17:23.899Z,8.33
2018-09-02T16:19:51.134Z,7.60
2018-09-02T16:22:18.392Z,8.23
2018-09-02T16:24:45.623Z,6.77
2018-09-02T16:27:12.948Z,7.17
2018-09-02T16:29:40.345Z,7.70
2018-09-02T16:32:07.497Z,7.13
2018-09-02T16:34:34.774Z,7.60
2018-09-02T16:37:02.146Z,6.50
2018-09-02T16:39:29.373Z,7.10
2018-09-02T16:41:56.574Z,7.80
2018-09-02T16:44:23.854Z,7.00
2018-09-02T16:46:51.093Z,8.50
2018-09-02T16:49:18.387Z,7.43
2018-09-02T16:51:45.691Z,7.00
2018-09-02T16:54:12.977Z,6.63
2018-09-02T16:56:40.190Z,8.03
2018-09-02T16:59:07.493Z,6.83
2018-09-02T17:01:34.743Z,7.23
2018-09-02T17:04:05.245Z,6.60
2018-09-02T17:06:32.407Z,7.70
2018-09-02T17:08:59.733Z,6.60
2018-09-02T17:11:26.986Z,7.50
2018-09-02T17:13:54.341Z,8.60
2018-09-02T17:16:21.642Z,7.90
2018-09-02T17:18:51.492Z,8.33
2018-09-02T17:21:18.803Z,7.30
2018-09-02T17:23:46.101Z,7.40
2018-09-02T17:26:13.479Z,8.70
2018-09-02T17:28:40.556Z,8.30
2018-09-02T17:31:07.844Z,7.77
2018-09-02T17:33:35.119Z,8.13
2018-09-02T17:36:02.359Z,7.50
2018-09-02T17:38:29.652Z,7.77
2018-09-02T17:40:56.926Z,9.23
2018-09-02T17:43:24.115Z,21.87
2018-09-02T17:45:51.462Z,10.53
2018-09-02T17:48:18.651Z,9.07
2018-09-02T17:50:45.877Z,9.17
2018-09-02T17:53:13.148Z,10.67
2018-09-02T17:55:40.803Z,9.57
2018-09-02T17:58:08.065Z,9.37
2018-09-02T18:00:38.907Z,9.00
2018-09-02T18:03:06.208Z,9.10
2018-09-02T18:05:33.429Z,9.43
2018-09-02T18:08:00.943Z,10.80
2018-09-02T18:10:28.244Z,9.80
2018-09-02T18:12:55.511Z,9.30
2018-09-02T18:15:22.731Z,9.03
2018-09-02T18:17:50.072Z,9.27
2018-09-02T18:20:17.367Z,8.10
2018-09-02T18:22:44.611Z,9.70
2018-09-02T18:25:11.893Z,9.33
2018-09-02T18:27:41.676Z,9.67
2018-09-02T18:30:08.986Z,9.07
2018-09-02T18:32:36.328Z,9.23
2018-09-02T18:35:03.628Z,9.57
2018-09-02T18:37:30.960Z,10.20
2018-09-02T18:39:58.211Z,10.00
2018-09-02T18:42:25.757Z,9.93
2018-09-02T18:44:53.089Z,9.33
2018-09-02T18:47:20.366Z,63.80
2018-09-02T18:49:47.688Z,15.43
2018-09-02T18:52:15.635Z,10.73
2018-09-02T18:54:42.987Z,10.10
2018-09-02T18:57:10.634Z,9.90
2018-09-02T18:59:38.147Z,10.90
2018-09-02T19:02:05.481Z,10.03
2018-09-02T19:04:32.791Z,10.63
2018-09-02T19:07:00.209Z,9.70
2018-09-02T19:09:27.454Z,10.27
2018-09-02T19:11:54.815Z,10.30
2018-09-02T19:14:22.269Z,11.20
2018-09-02T19:16:49.584Z,10.87
2018-09-02T19:19:16.882Z,11.20
2018-09-02T19:21:44.095Z,10.57
2018-09-02T19:24:11.349Z,11.27
2018-09-02T19:26:38.714Z,10.20
2018-09-02T19:29:06.105Z,10.57
2018-09-02T19:31:33.419Z,10.90
2018-09-02T19:34:00.721Z,10.20
2018-09-02T19:36:27.986Z,11.20
2018-09-02T19:38:55.357Z,11.20
2018-09-02T19:41:22.568Z,10.03
2018-09-02T19:43:49.900Z,10.70
2018-09-02T19:46:17.215Z,10.37
2018-09-02T19:48:44.476Z,11.00
2018-09-02T19:51:11.713Z,12.17
2018-09-02T19:53:38.907Z,10.87
2018-09-02T19:56:06.127Z,11.83
2018-09-02T19:58:33.420Z,11.73
2018-09-02T20:01:00.773Z,11.80
2018-09-02T20:03:28.195Z,12.93
2018-09-02T20:05:56.630Z,12.33
2018-09-02T20:08:23.984Z,11.93
2018-09-02T20:10:51.386Z,12.50
2018-09-02T20:13:18.703Z,12.53
2018-09-02T20:15:46.156Z,13.40
2018-09-02T20:18:13.463Z,11.40
2018-09-02T20:20:40.706Z,12.27
2018-09-02T20:23:07.954Z,12.60
2018-09-02T20:25:35.145Z,14.37
2018-09-02T20:28:02.449Z,12.27
2018-09-02T20:30:29.850Z,12.27
2018-09-02T20:32:57.143Z,88.03
2018-09-02T20:35:24.404Z,13.07
2018-09-02T20:37:51.657Z,12.37
2018-09-02T20:40:18.858Z,12.10
2018-09-02T20:42:46.150Z,12.33
2018-09-02T20:45:13.400Z,11.50
2018-09-02T20:47:40.704Z,13.47
2018-09-02T20:50:07.974Z,11.77
2018-09-02T20:52:35.212Z,13.23
2018-09-02T20:55:02.502Z,13.53
2018-09-02T20:57:29.783Z,13.60
2018-09-02T20:59:57.076Z,13.47
2018-09-02T21:02:24.434Z,12.97
2018-09-02T21:04:51.733Z,13.50
2018-09-02T21:07:18.980Z,13.70
2018-09-02T21:09:46.261Z,13.57
2018-09-02T21:12:13.573Z,13.20
2018-09-02T21:14:40.879Z,13.67
2018-09-02T21:17:08.244Z,13.53
2018-09-02T21:19:35.477Z,14.47
2018-09-02T21:22:02.737Z,13.93
2018-09-02T21:24:30.055Z,13.03
2018-09-02T21:26:57.313Z,13.40
2018-09-02T21:29:24.615Z,12.90
2018-09-02T21:31:51.847Z,13.67
2018-09-02T21:34:19.077Z,13.93
2018-09-02T21:36:46.371Z,11.97
2018-09-02T21:39:13.625Z,13.17
2018-09-02T21:41:40.895Z,14.73
2018-09-02T21:44:08.197Z,13.30
2018-09-02T21:46:35.462Z,14.90
2018-09-02T21:49:02.817Z,15.13
2018-09-02T21:51:30.122Z,14.07
2018-09-02T21:53:57.478Z,12.73
2018-09-02T21:56:24.692Z,16.07
2018-09-02T21:58:51.992Z,16.60
2018-09-02T22:01:19.269Z,15.00
2018-09-02T22:03:46.502Z,14.30
2018-09-02T22:06:13.743Z,14.43
2018-09-02T22:08:40.977Z,15.60
2018-09-02T22:11:08.221Z,17.40
2018-09-02T22:14:59.971Z,16.20
2018-09-02T22:17:27.268Z,16.83
2018-09-02T22:19:54.543Z,17.83
2018-09-02T22:22:21.829Z,16.60
2018-09-02T22:24:49.109Z,19.73
2018-09-02T22:27:16.377Z,17.60
2018-09-02T22:29:43.673Z,16.97
2018-09-02T22:32:10.978Z,19.17
2018-09-02T22:34:38.227Z,18.47
2018-09-02T22:37:05.592Z,17.90
2018-09-02T22:39:32.829Z,18.17
2018-09-02T22:42:00.115Z,18.83
2018-09-02T22:44:27.377Z,18.30
2018-09-02T22:46:54.622Z,19.53
2018-09-02T22:49:21.879Z,19.13
2018-09-02T22:51:49.125Z,19.00
2018-09-02T22:54:16.355Z,19.33
2018-09-02T22:56:43.621Z,19.13
2018-09-02T22:59:10.862Z,19.20
2018-09-02T23:01:38.173Z,20.20
2018-09-02T23:04:05.370Z,18.77
2018-09-02T23:06:32.676Z,18.53
2018-09-02T23:08:59.883Z,20.27
2018-09-02T23:11:27.135Z,19.80
2018-09-02T23:13:54.403Z,19.63
2018-09-02T23:16:21.671Z,19.77
2018-09-02T23:18:48.908Z,19.20
2018-09-02T23:21:16.185Z,21.53
2018-09-02T23:23:43.549Z,19.07
2018-09-02T23:26:10.860Z,19.60
2018-09-02T23:28:38.301Z,20.93
2018-09-02T23:31:05.528Z,19.87
2018-09-02T23:33:32.806Z,21.83
2018-09-02T23:36:00.020Z,21.90
2018-09-02T23:38:27.232Z,22.70
2018-09-02T23:40:54.530Z,24.00
2018-09-02T23:43:21.805Z,22.10
2018-09-02T23:45:49.127Z,23.60
2018-09-02T23:48:16.410Z,21.47
2018-09-02T23:50:43.666Z,20.70
2018-09-02T23:53:10.960Z,23.53
2018-09-02T23:55:38.267Z,22.97
2018-09-02T23:58:05.860Z,23.80
